Time;durP1;ratioP1;P1;durP2;ratioP2;P2;SDS_P1;SDS_P2;PMS_P1;PMS_P2;Temp;Humidity;BMP_temperature;BMP_pressure;BME280_temperature;BME280_humidity;BME280_pressure;Samples;Min_cycle;Max_cycle;Signal;HPM_P1;HPM_P2
2022/12/14 00:00:57;;;;;;;55.83;32.83;;;-3.30;99.90;;;;;;5070901;28;20785;-75
2022/12/14 00:03:23;;;;;;;61.88;35.13;;;-3.30;99.90;;;;;;5076021;28;20409;-75
2022/12/14 00:05:49;;;;;;;53.53;33.37;;;-3.30;99.90;;;;;;5089824;28;20406;-75
2022/12/14 00:08:16;;;;;;;58.07;32.90;;;-3.30;99.90;;;;;;5090941;28;20413;-74
2022/12/14 00:10:42;;;;;;;59.58;35.60;;;-3.30;99.90;;;;;;5090341;28;20404;-75
2022/12/14 00:13:09;;;;;;;52.50;32.10;;;-3.30;99.90;;;;;;5079208;28;20499;-75
2022/12/14 00:15:37;;;;;;;56.25;33.33;;;-3.30;99.90;;;;;;5090334;28;20412;-75
2022/12/14 00:18:04;;;;;;;54.67;31.98;;;-3.30;99.90;;;;;;5077775;28;20435;-74
2022/12/14 00:20:29;;;;;;;57.60;34.20;;;-3.30;99.90;;;;;;5083533;28;20412;-75
2022/12/14 00:22:56;;;;;;;59.23;33.40;;;-3.30;99.90;;;;;;5070274;28;20410;-75
2022/12/14 00:25:22;;;;;;;58.63;33.53;;;-3.30;99.90;;;;;;5082566;28;20816;-75
2022/12/14 00:27:48;;;;;;;55.03;32.33;;;-3.30;99.90;;;;;;5081960;28;21058;-75
2022/12/14 00:30:19;;;;;;;54.53;32.93;;;-3.40;99.90;;;;;;5075189;28;20418;-75
2022/12/14 00:32:45;;;;;;;55.33;32.85;;;-3.40;99.90;;;;;;5090444;28;20430;-75
2022/12/14 00:35:14;;;;;;;55.97;32.97;;;-3.50;99.90;;;;;;5088522;28;20402;-75
2022/12/14 00:37:39;;;;;;;55.15;33.20;;;-3.50;99.90;;;;;;5088966;28;20434;-75
2022/12/14 00:40:07;;;;;;;56.55;32.65;;;-3.50;99.90;;;;;;5089733;28;20900;-75
2022/12/14 00:42:33;;;;;;;57.20;31.70;;;-3.50;99.90;;;;;;5090230;28;20402;-75
2022/12/14 00:44:58;;;;;;;55.55;32.55;;;-3.50;99.90;;;;;;5085094;28;20790;-75
2022/12/14 00:47:24;;;;;;;53.50;30.58;;;-3.60;99.90;;;;;;5085204;28;20414;-75
2022/12/14 00:49:50;;;;;;;53.15;31.73;;;-3.60;99.90;;;;;;5089626;28;20924;-75
2022/12/14 00:52:16;;;;;;;53.10;32.27;;;-3.60;99.90;;;;;;5088269;28;20434;-75
2022/12/14 00:54:41;;;;;;;55.00;33.03;;;-3.70;99.90;;;;;;5088813;28;20402;-75
2022/12/14 00:57:08;;;;;;;53.55;31.75;;;-3.70;99.90;;;;;;5089371;28;20746;-75
2022/12/14 00:59:34;;;;;;;56.28;33.05;;;-3.70;99.90;;;;;;5088707;28;20402;-75
2022/12/14 01:01:59;;;;;;;55.87;32.17;;;-3.70;99.90;;;;;;5088595;28;20467;-75
2022/12/14 01:04:26;;;;;;;55.63;31.10;;;-3.80;99.90;;;;;;5079699;28;20399;-75
2022/12/14 01:06:52;;;;;;;52.73;30.93;;;-3.80;99.90;;;;;;5078386;28;20582;-75
2022/12/14 01:09:20;;;;;;;55.15;32.35;;;-3.80;99.90;;;;;;5076862;28;20441;-75
2022/12/14 01:11:46;;;;;;;56.30;33.00;;;-3.80;99.90;;;;;;5081122;28;20475;-75
2022/12/14 01:14:14;;;;;;;57.28;31.95;;;-3.80;99.90;;;;;;5070602;28;20924;-75
2022/12/14 01:16:39;;;;;;;58.33;33.10;;;-3.80;99.90;;;;;;5087618;28;20809;-75
2022/12/14 01:19:06;;;;;;;59.70;34.33;;;-3.80;99.90;;;;;;5088436;28;20444;-75
2022/12/14 01:21:31;;;;;;;59.20;32.58;;;-3.80;99.90;;;;;;5076442;28;20408;-75
2022/12/14 01:23:59;;;;;;;56.60;33.93;;;-3.80;99.90;;;;;;5087645;28;20924;-75
2022/12/14 01:26:26;;;;;;;58.20;33.17;;;-3.80;99.90;;;;;;5089521;28;20770;-75
2022/12/14 01:28:57;;;;;;;57.53;33.47;;;-3.80;99.90;;;;;;5077216;28;20412;-75
2022/12/14 01:31:28;;;;;;;61.22;33.28;;;-3.80;99.90;;;;;;5080400;28;20403;-75
2022/12/14 01:33:55;;;;;;;58.83;34.22;;;-3.80;99.90;;;;;;5087917;28;20420;-75
2022/12/14 01:36:22;;;;;;;54.70;32.75;;;-3.80;99.90;;;;;;5088096;28;20409;-75
2022/12/14 01:38:53;;;;;;;54.33;31.13;;;-3.80;99.90;;;;;;5085144;28;21131;-75
2022/12/14 01:41:34;;;;;;;53.92;32.00;;;-3.80;99.90;;;;;;5083158;28;20404;-75
2022/12/14 01:44:23;;;;;;;51.77;30.30;;;-3.90;99.90;;;;;;5084158;28;20483;-75
2022/12/14 01:46:54;;;;;;;62.97;33.90;;;-3.90;99.90;;;;;;5084265;28;20420;-75
2022/12/14 01:49:29;;;;;;;60.35;33.05;;;-3.90;99.90;;;;;;5087407;28;20497;-75
2022/12/14 01:52:02;;;;;;;56.65;32.00;;;-3.90;99.90;;;;;;5088148;28;20422;-75
2022/12/14 01:54:30;;;;;;;55.28;31.52;;;-3.90;99.90;;;;;;5088654;28;20402;-75
2022/12/14 01:56:56;;;;;;;56.17;32.40;;;-3.90;99.90;;;;;;5088003;28;20410;-75
2022/12/14 01:59:28;;;;;;;55.85;33.17;;;-4.00;99.90;;;;;;5088913;28;20412;-75
2022/12/14 02:01:54;;;;;;;61.60;33.30;;;-4.00;99.90;;;;;;5085968;28;20410;-75
2022/12/14 02:04:20;;;;;;;55.88;32.80;;;-4.00;99.90;;;;;;5087645;28;20402;-75
2022/12/14 02:06:48;;;;;;;59.67;32.78;;;-4.00;99.90;;;;;;5089985;28;20400;-75
2022/12/14 02:09:24;;;;;;;60.28;32.72;;;-4.00;99.90;;;;;;5088276;28;20410;-75
2022/12/14 02:12:20;;;;;;;55.42;31.30;;;-4.10;99.90;;;;;;5082286;28;20438;-75
2022/12/14 02:14:47;;;;;;;57.85;32.00;;;-4.10;99.90;;;;;;5084779;28;20489;-75
2022/12/14 02:17:14;;;;;;;57.67;33.30;;;-4.20;99.90;;;;;;5086539;28;20398;-75
2022/12/14 02:19:42;;;;;;;56.67;32.33;;;-4.20;99.90;;;;;;5087370;28;20459;-75
2022/12/14 02:22:30;;;;;;;60.35;33.85;;;-4.20;99.90;;;;;;5088347;28;20475;-75
2022/12/14 02:25:17;;;;;;;57.15;32.75;;;-4.20;99.90;;;;;;5089091;28;20416;-75
2022/12/14 02:27:57;;;;;;;54.80;31.27;;;-4.20;99.90;;;;;;5087234;28;20503;-75
2022/12/14 02:30:29;;;;;;;56.67;32.30;;;-4.20;99.90;;;;;;5088342;28;20735;-75
2022/12/14 02:33:07;;;;;;;54.80;31.20;;;-4.30;99.90;;;;;;5078213;28;21764;-75
2022/12/14 02:35:37;;;;;;;56.33;31.03;;;-4.30;99.90;;;;;;5074741;28;20479;-75
2022/12/14 02:38:05;;;;;;;56.78;32.88;;;-4.30;99.90;;;;;;5086305;28;20441;-75
2022/12/14 02:41:20;;;;;;;60.65;33.95;;;-4.30;99.90;;;;;;5085962;28;20409;-75
2022/12/14 02:43:59;;;;;;;58.15;33.42;;;-4.30;99.90;;;;;;5052267;28;20411;-75
2022/12/14 02:46:32;;;;;;;57.25;31.67;;;-4.30;99.90;;;;;;5071988;28;20852;-75
2022/12/14 02:49:14;;;;;;;57.97;32.38;;;-4.30;99.90;;;;;;5077350;28;20793;-75
2022/12/14 02:51:43;;;;;;;60.08;32.88;;;-4.40;99.90;;;;;;5086776;28;20436;-75
2022/12/14 02:54:19;;;;;;;55.60;31.40;;;-4.40;99.90;;;;;;5074715;28;20406;-75
2022/12/14 02:56:55;;;;;;;56.50;31.98;;;-4.40;99.90;;;;;;5074866;28;20423;-75
2022/12/14 02:59:22;;;;;;;59.90;32.55;;;-4.40;99.90;;;;;;5086966;28;20397;-75
2022/12/14 03:01:51;;;;;;;63.38;34.05;;;-4.40;99.90;;;;;;5077615;28;20399;-75
2022/12/14 03:04:17;;;;;;;62.72;34.25;;;-4.40;99.90;;;;;;5080925;28;20439;-75
2022/12/14 03:06:59;;;;;;;64.10;33.57;;;-4.40;99.90;;;;;;5078299;28;20426;-75
2022/12/14 03:09:28;;;;;;;60.20;33.33;;;-4.40;99.90;;;;;;5074038;28;20474;-75
2022/12/14 03:12:02;;;;;;;61.85;33.58;;;-4.40;99.90;;;;;;5086922;28;20422;-75
2022/12/14 03:14:37;;;;;;;60.22;33.67;;;-4.40;99.90;;;;;;5073452;28;20398;-74
2022/12/14 03:17:09;;;;;;;60.88;34.17;;;-4.30;99.90;;;;;;5073050;28;20415;-75
2022/12/14 03:19:43;;;;;;;61.65;33.78;;;-4.40;99.90;;;;;;5069009;28;20405;-75
2022/12/14 03:22:19;;;;;;;62.22;34.40;;;-4.40;99.90;;;;;;5087463;28;20818;-75
2022/12/14 03:25:07;;;;;;;63.35;33.67;;;-4.40;99.90;;;;;;5077344;28;20403;-75
2022/12/14 03:27:36;;;;;;;64.18;33.95;;;-4.40;99.90;;;;;;5085696;28;20421;-74
2022/12/14 03:30:16;;;;;;;61.60;33.63;;;-4.40;99.90;;;;;;5068834;28;20905;-75
2022/12/14 03:32:52;;;;;;;60.42;33.17;;;-4.50;99.90;;;;;;5068966;28;20432;-75
2022/12/14 03:35:26;;;;;;;65.53;34.50;;;-4.50;99.90;;;;;;5065472;28;20493;-75
2022/12/14 03:38:07;;;;;;;61.67;33.53;;;-4.50;99.90;;;;;;5079221;28;20406;-75
2022/12/14 03:40:41;;;;;;;63.22;34.58;;;-4.50;99.90;;;;;;5089511;28;20412;-75
2022/12/14 03:43:17;;;;;;;59.83;32.78;;;-4.50;99.90;;;;;;5090081;28;20933;-75
2022/12/14 03:45:47;;;;;;;63.85;33.65;;;-4.50;99.90;;;;;;5085752;28;20407;-75
2022/12/14 03:48:13;;;;;;;62.40;34.03;;;-4.50;99.90;;;;;;5071976;28;20411;-75
2022/12/14 03:50:48;;;;;;;61.63;33.67;;;-4.50;99.90;;;;;;5076653;28;20458;-75
2022/12/14 03:53:23;;;;;;;61.10;33.42;;;-4.60;99.90;;;;;;5077523;28;20436;-75
2022/12/14 03:56:23;;;;;;;64.43;34.53;;;-4.60;99.90;;;;;;5075890;28;20408;-75
2022/12/14 03:59:07;;;;;;;64.50;34.00;;;-4.60;99.90;;;;;;5088436;28;20952;-75
2022/12/14 04:01:51;;;;;;;64.28;34.20;;;-4.60;99.90;;;;;;5085659;28;20414;-74
2022/12/14 04:04:37;;;;;;;61.05;33.08;;;-4.60;99.90;;;;;;5081709;28;20414;-75
2022/12/14 04:07:16;;;;;;;63.63;32.95;;;-4.60;99.90;;;;;;5074094;28;20439;-75
2022/12/14 04:18:56;;;;;;;61.60;32.97;;;-4.70;99.90;;;;;;5070411;28;20411;-75
2022/12/14 04:21:45;;;;;;;64.22;34.08;;;-4.70;99.90;;;;;;5086258;28;20405;-74
2022/12/14 04:27:40;;;;;;;60.90;33.08;;;-4.70;99.90;;;;;;5081640;28;20413;-74
2022/12/14 04:30:08;;;;;;;61.53;33.03;;;-4.70;99.90;;;;;;5090687;28;20406;-75
2022/12/14 04:32:42;;;;;;;56.53;30.53;;;-4.70;99.90;;;;;;5089770;28;20512;-75
2022/12/14 04:35:19;;;;;;;58.92;32.13;;;-4.80;99.90;;;;;;5076678;28;20411;-75
2022/12/14 04:37:57;;;;;;;57.03;31.85;;;-4.80;99.90;;;;;;5068753;28;20428;-75
2022/12/14 04:40:39;;;;;;;57.40;31.40;;;-4.80;99.90;;;;;;5066632;28;20407;-75
2022/12/14 04:43:09;;;;;;;55.53;30.50;;;-4.80;99.90;;;;;;5080009;28;20914;-75
2022/12/14 04:45:56;;;;;;;57.03;31.35;;;-4.80;99.90;;;;;;5072807;28;20408;-75
2022/12/14 04:48:28;;;;;;;55.30;29.40;;;-4.80;99.90;;;;;;5086891;28;20401;-75
2022/12/14 04:51:19;;;;;;;58.10;31.47;;;-4.90;99.90;;;;;;5088337;28;20493;-75
2022/12/14 04:53:48;;;;;;;54.47;30.15;;;-4.90;99.90;;;;;;5089327;28;20944;-75
2022/12/14 04:56:42;;;;;;;55.72;30.27;;;-4.90;99.90;;;;;;5089373;28;20446;-74
2022/12/14 04:59:08;;;;;;;55.55;30.58;;;-5.00;99.90;;;;;;5089453;28;20406;-75
2022/12/14 05:01:51;;;;;;;57.00;30.13;;;-5.00;99.90;;;;;;5077585;28;20769;-75
2022/12/14 05:04:27;;;;;;;53.97;28.97;;;-5.00;99.90;;;;;;5089077;28;20484;-75
2022/12/14 05:07:20;;;;;;;54.13;28.90;;;-5.00;99.90;;;;;;5089576;28;20817;-75
2022/12/14 05:10:02;;;;;;;55.93;29.43;;;-5.00;99.90;;;;;;5069664;28;20416;-75
2022/12/14 05:12:46;;;;;;;51.90;28.65;;;-5.10;99.90;;;;;;5076617;28;20436;-75
2022/12/14 05:15:16;;;;;;;54.25;29.23;;;-5.10;99.90;;;;;;5062792;28;20408;-74
2022/12/14 05:17:43;;;;;;;56.67;29.50;;;-5.10;99.90;;;;;;5087537;28;20418;-74
2022/12/14 05:20:15;;;;;;;56.92;30.08;;;-5.10;99.90;;;;;;5089074;28;20486;-75
2022/12/14 05:22:41;;;;;;;55.38;29.52;;;-5.10;99.90;;;;;;5087684;28;20406;-75
2022/12/14 05:25:06;;;;;;;55.35;28.90;;;-5.10;99.90;;;;;;5074564;28;20413;-75
2022/12/14 05:27:32;;;;;;;55.25;29.38;;;-5.10;99.90;;;;;;5089348;28;20401;-75
2022/12/14 05:29:58;;;;;;;52.07;28.77;;;-5.10;99.90;;;;;;5076493;28;20438;-75
2022/12/14 05:32:23;;;;;;;56.83;29.77;;;-5.10;99.90;;;;;;5088781;28;20457;-75
2022/12/14 05:34:49;;;;;;;54.28;28.88;;;-5.20;99.90;;;;;;5088959;28;20398;-75
2022/12/14 05:37:14;;;;;;;52.87;27.60;;;-5.20;99.90;;;;;;5086388;28;20399;-75
2022/12/14 05:39:40;;;;;;;52.03;28.03;;;-5.10;99.90;;;;;;5076790;28;20775;-74
2022/12/14 05:42:06;;;;;;;50.10;28.20;;;-5.10;99.90;;;;;;5085869;28;20402;-75
2022/12/14 05:44:31;;;;;;;57.77;29.57;;;-5.10;99.90;;;;;;5079059;28;20404;-74
2022/12/14 05:46:57;;;;;;;54.37;29.73;;;-5.10;99.90;;;;;;5082107;28;21104;-75
2022/12/14 05:49:23;;;;;;;55.00;29.92;;;-5.10;99.90;;;;;;5088132;28;20398;-74
2022/12/14 05:51:48;;;;;;;53.67;28.63;;;-5.10;99.90;;;;;;5086664;28;20436;-75
2022/12/14 05:54:14;;;;;;;53.17;28.80;;;-5.10;99.90;;;;;;5081757;28;20411;-75
2022/12/14 05:56:40;;;;;;;52.10;28.63;;;-5.20;99.90;;;;;;5067569;28;20754;-75
2022/12/14 05:59:05;;;;;;;50.95;27.25;;;-5.20;99.90;;;;;;5086729;28;20413;-75
2022/12/14 06:01:31;;;;;;;50.13;27.83;;;-5.20;99.90;;;;;;5088790;28;20448;-74
2022/12/14 06:03:57;;;;;;;51.13;26.87;;;-5.20;99.90;;;;;;5086499;28;20944;-75
2022/12/14 06:06:23;;;;;;;50.90;27.70;;;-5.20;99.90;;;;;;5075438;28;20495;-74
2022/12/14 06:08:49;;;;;;;51.65;27.63;;;-5.20;99.90;;;;;;5081713;28;20456;-75
2022/12/14 06:11:20;;;;;;;56.25;28.85;;;-5.30;99.90;;;;;;5068617;28;20406;-75
2022/12/14 06:13:46;;;;;;;51.80;28.23;;;-5.30;99.90;;;;;;5066307;28;20500;-75
2022/12/14 06:16:20;;;;;;;47.90;26.70;;;-5.30;99.90;;;;;;5067413;28;20976;-75
2022/12/14 06:18:47;;;;;;;49.05;27.30;;;-5.30;99.90;;;;;;5079258;28;20868;-75
2022/12/14 06:21:14;;;;;;;51.90;28.17;;;-5.30;99.90;;;;;;5067917;28;20404;-75
2022/12/14 06:23:40;;;;;;;48.03;27.02;;;-5.30;99.90;;;;;;5070410;28;20840;-75
2022/12/14 06:26:07;;;;;;;51.70;28.23;;;-5.30;99.90;;;;;;5069407;28;20483;-75
2022/12/14 06:28:34;;;;;;;51.72;28.92;;;-5.30;99.90;;;;;;5069591;28;20413;-75
2022/12/14 06:31:00;;;;;;;48.28;27.13;;;-5.30;99.90;;;;;;5073720;28;20486;-75
2022/12/14 06:33:26;;;;;;;52.22;27.73;;;-5.30;99.90;;;;;;5087800;28;20532;-75
2022/12/14 06:35:51;;;;;;;50.15;26.50;;;-5.30;99.90;;;;;;5086288;28;20413;-75
2022/12/14 06:38:17;;;;;;;52.77;27.83;;;-5.30;99.90;;;;;;5080896;28;20392;-75
2022/12/14 06:40:43;;;;;;;55.60;28.67;;;-5.30;99.90;;;;;;5082019;28;20398;-75
2022/12/14 06:43:08;;;;;;;52.40;29.25;;;-5.30;99.90;;;;;;5082806;28;20403;-74
2022/12/14 06:45:34;;;;;;;56.03;29.33;;;-5.30;99.90;;;;;;5079673;28;20395;-73
2022/12/14 06:48:00;;;;;;;58.57;29.83;;;-5.30;99.90;;;;;;5083411;28;20452;-73
2022/12/14 06:50:29;;;;;;;56.67;29.42;;;-5.30;99.90;;;;;;5073172;28;20428;-75
2022/12/14 06:52:54;;;;;;;53.90;28.73;;;-5.20;99.90;;;;;;5067927;28;20508;-75
2022/12/14 06:55:21;;;;;;;55.47;28.80;;;-5.30;99.90;;;;;;5084973;28;20916;-74
2022/12/14 06:57:50;;;;;;;53.97;29.13;;;-5.30;99.90;;;;;;5085820;28;20501;-75
2022/12/14 07:00:20;;;;;;;54.97;28.17;;;-5.30;99.90;;;;;;5084049;28;20729;-75
2022/12/14 07:02:46;;;;;;;52.67;27.27;;;-5.30;99.90;;;;;;5075587;28;20440;-75
2022/12/14 07:05:13;;;;;;;53.53;27.00;;;-5.30;99.90;;;;;;5087147;28;20417;-74
2022/12/14 07:07:39;;;;;;;49.55;26.60;;;-5.30;99.90;;;;;;5077547;28;20413;-75
2022/12/14 07:10:07;;;;;;;51.95;26.77;;;-5.30;99.90;;;;;;5082091;28;20915;-74
2022/12/14 07:12:33;;;;;;;50.70;27.17;;;-5.30;99.90;;;;;;5087115;28;20484;-75
2022/12/14 07:14:59;;;;;;;48.28;26.10;;;-5.30;99.90;;;;;;5085997;28;20402;-75
2022/12/14 07:17:25;;;;;;;49.45;26.30;;;-5.30;99.90;;;;;;5085176;28;20410;-74
2022/12/14 07:19:52;;;;;;;47.60;26.13;;;-5.30;99.90;;;;;;5070815;28;20422;-75
2022/12/14 07:22:17;;;;;;;46.28;24.70;;;-5.30;99.90;;;;;;5076442;28;20477;-75
2022/12/14 07:24:43;;;;;;;45.27;24.73;;;-5.30;99.90;;;;;;5082447;28;20486;-75
2022/12/14 07:27:09;;;;;;;47.25;24.38;;;-5.30;99.90;;;;;;5075981;28;20436;-75
2022/12/14 07:29:35;;;;;;;45.83;23.80;;;-5.30;99.90;;;;;;5086539;28;20400;-75
2022/12/14 07:32:00;;;;;;;45.33;24.02;;;-5.30;99.90;;;;;;5087261;28;20848;-75
2022/12/14 07:34:26;;;;;;;44.97;23.17;;;-5.30;99.90;;;;;;5086653;28;20539;-74
2022/12/14 07:36:52;;;;;;;42.88;23.13;;;-5.30;99.90;;;;;;5077784;28;20396;-75
2022/12/14 07:39:19;;;;;;;44.95;24.02;;;-5.30;99.90;;;;;;5081367;28;20402;-75
2022/12/14 07:41:46;;;;;;;42.28;23.38;;;-5.30;99.90;;;;;;5067241;28;20411;-75
2022/12/14 07:44:12;;;;;;;43.50;24.45;;;-5.30;99.90;;;;;;5082681;28;20922;-75
2022/12/14 07:46:39;;;;;;;41.58;22.40;;;-5.40;99.90;;;;;;5085367;28;20485;-75
2022/12/14 07:49:05;;;;;;;43.90;23.08;;;-5.30;99.90;;;;;;5083935;28;20524;-74
2022/12/14 07:51:35;;;;;;;46.27;24.23;;;-5.30;99.90;;;;;;5087413;28;20401;-75
2022/12/14 07:54:02;;;;;;;41.85;22.88;;;-5.30;99.90;;;;;;5085600;28;20417;-75
2022/12/14 07:56:40;;;;;;;39.15;22.40;;;-5.40;99.90;;;;;;5080271;28;20530;-75
2022/12/14 07:59:07;;;;;;;43.35;22.95;;;-5.40;99.90;;;;;;5080563;28;20407;-74
2022/12/14 08:01:35;;;;;;;43.88;22.85;;;-5.40;99.90;;;;;;5085551;28;20401;-74
2022/12/14 08:04:08;;;;;;;44.85;23.02;;;-5.40;99.90;;;;;;5072428;28;20449;-75
2022/12/14 08:06:35;;;;;;;43.17;22.58;;;-5.50;99.90;;;;;;5080604;28;20409;-75
2022/12/14 08:09:01;;;;;;;39.07;22.37;;;-5.50;99.90;;;;;;5073306;28;20418;-75
2022/12/14 08:11:27;;;;;;;43.15;23.23;;;-5.50;99.90;;;;;;5086532;28;20504;-75
2022/12/14 08:13:57;;;;;;;43.75;23.02;;;-5.60;99.90;;;;;;5072518;28;20394;-75
2022/12/14 08:16:24;;;;;;;42.20;22.03;;;-5.60;99.90;;;;;;5086850;28;20420;-75
2022/12/14 08:18:52;;;;;;;41.70;22.17;;;-5.50;99.90;;;;;;5086315;28;20788;-75
2022/12/14 08:21:20;;;;;;;43.97;22.70;;;-5.50;99.90;;;;;;5087826;28;20868;-75
2022/12/14 08:23:47;;;;;;;41.40;22.10;;;-5.50;99.90;;;;;;5083830;28;20516;-75
2022/12/14 08:26:13;;;;;;;42.35;21.75;;;-5.50;99.90;;;;;;5081173;28;20405;-74
2022/12/14 08:28:39;;;;;;;41.33;22.02;;;-5.50;99.90;;;;;;5089311;28;20402;-75
2022/12/14 08:31:08;;;;;;;40.27;21.90;;;-5.50;99.90;;;;;;5075243;28;20773;-75
2022/12/14 08:33:35;;;;;;;39.40;21.83;;;-5.50;99.90;;;;;;5089559;28;20421;-75
2022/12/14 08:36:12;;;;;;;38.03;21.83;;;-5.50;99.90;;;;;;5077744;28;20401;-75
2022/12/14 08:38:39;;;;;;;39.28;21.55;;;-5.40;99.90;;;;;;5085681;28;20422;-75
2022/12/14 08:41:06;;;;;;;40.70;21.77;;;-5.40;99.90;;;;;;5088150;28;20406;-75
2022/12/14 08:43:32;;;;;;;40.73;21.43;;;-5.40;99.90;;;;;;5089927;28;20424;-75
2022/12/14 08:45:58;;;;;;;41.27;22.63;;;-5.40;99.90;;;;;;5089009;28;20796;-75
2022/12/14 08:48:24;;;;;;;41.03;21.53;;;-5.30;99.90;;;;;;5089620;28;20405;-75
2022/12/14 08:50:50;;;;;;;41.40;22.90;;;-5.30;99.90;;;;;;5089657;28;20406;-75
2022/12/14 08:53:16;;;;;;;40.92;22.27;;;-5.30;99.90;;;;;;5077588;28;20435;-75
2022/12/14 08:55:41;;;;;;;43.40;23.30;;;-5.30;99.90;;;;;;5087713;28;20957;-75
2022/12/14 08:58:07;;;;;;;42.65;22.65;;;-5.20;99.90;;;;;;5087431;28;20393;-75
2022/12/14 09:00:32;;;;;;;42.80;22.40;;;-5.20;99.90;;;;;;5085476;28;20442;-75
2022/12/14 09:02:58;;;;;;;41.25;21.35;;;-5.10;99.90;;;;;;5082124;28;20924;-75
2022/12/14 09:05:24;;;;;;;41.70;21.43;;;-5.10;99.90;;;;;;5075659;28;20416;-75
2022/12/14 09:07:49;;;;;;;39.67;21.30;;;-5.10;99.90;;;;;;5089385;28;20402;-75
2022/12/14 09:10:15;;;;;;;41.00;21.75;;;-5.00;99.90;;;;;;5083017;28;20407;-75
2022/12/14 09:12:41;;;;;;;40.35;21.77;;;-5.00;99.90;;;;;;5069619;28;20428;-75
2022/12/14 09:15:07;;;;;;;39.33;21.48;;;-5.00;99.90;;;;;;5088135;28;20402;-75
2022/12/14 09:17:33;;;;;;;40.92;22.38;;;-4.90;99.90;;;;;;5088505;28;20401;-75
2022/12/14 09:19:59;;;;;;;39.90;21.40;;;-4.90;99.90;;;;;;5082420;28;20422;-74
2022/12/14 09:22:24;;;;;;;39.78;22.40;;;-4.80;99.90;;;;;;5070916;28;20457;-74
2022/12/14 09:24:51;;;;;;;42.20;22.33;;;-4.80;99.90;;;;;;5053228;28;20399;-75
2022/12/14 09:27:16;;;;;;;39.75;22.25;;;-4.80;99.90;;;;;;5083275;28;20454;-75
2022/12/14 09:29:43;;;;;;;41.35;22.33;;;-4.70;99.90;;;;;;5082862;28;20805;-75
2022/12/14 09:32:08;;;;;;;39.08;21.55;;;-4.70;99.90;;;;;;5082129;28;20570;-75
2022/12/14 09:34:35;;;;;;;38.70;21.65;;;-4.70;99.90;;;;;;5079848;28;20416;-75
2022/12/14 09:37:06;;;;;;;38.60;22.55;;;-4.60;99.90;;;;;;5082266;28;21193;-75
2022/12/14 09:39:32;;;;;;;39.78;21.58;;;-4.60;99.90;;;;;;5088098;28;20417;-75
2022/12/14 09:42:06;;;;;;;39.05;21.60;;;-4.60;99.90;;;;;;5088023;28;20477;-75
2022/12/14 09:44:50;;;;;;;42.15;21.63;;;-4.50;99.90;;;;;;5087677;28;20790;-75
2022/12/14 09:47:26;;;;;;;39.40;22.13;;;-4.50;99.90;;;;;;5087868;28;20434;-75
2022/12/14 09:50:11;;;;;;;40.45;21.30;;;-4.40;99.90;;;;;;5085332;28;20945;-75
2022/12/14 09:52:45;;;;;;;40.07;22.23;;;-4.40;99.90;;;;;;5086476;28;20933;-75
2022/12/14 09:55:25;;;;;;;39.60;21.80;;;-4.30;99.90;;;;;;5087246;28;20489;-75
2022/12/14 09:58:21;;;;;;;39.67;22.70;;;-4.30;99.90;;;;;;5088306;28;20413;-75
2022/12/14 10:00:58;;;;;;;41.53;22.70;;;-4.30;99.90;;;;;;5069300;28;20816;-75
2022/12/14 10:03:43;;;;;;;36.60;21.50;;;-4.20;99.90;;;;;;5074066;28;20415;-75
2022/12/14 10:06:30;;;;;;;38.83;21.65;;;-4.20;99.90;;;;;;5081393;28;20410;-74
2022/12/14 10:09:10;;;;;;;38.97;21.35;;;-4.20;99.90;;;;;;5067854;28;20427;-75
2022/12/14 10:11:42;;;;;;;37.60;21.08;;;-4.10;99.90;;;;;;5076490;28;20398;-75
2022/12/14 10:14:28;;;;;;;38.70;21.80;;;-4.10;99.90;;;;;;5076620;28;20416;-75
2022/12/14 10:17:19;;;;;;;37.10;21.15;;;-4.00;99.90;;;;;;5088116;28;20493;-75
2022/12/14 10:19:54;;;;;;;42.50;22.95;;;-4.00;99.90;;;;;;5072874;28;20466;-75
2022/12/14 10:22:24;;;;;;;38.92;20.98;;;-4.00;99.90;;;;;;5083387;28;20782;-75
2022/12/14 10:24:58;;;;;;;36.38;20.98;;;-3.90;99.90;;;;;;5069247;28;20478;-75
2022/12/14 10:27:27;;;;;;;41.93;22.53;;;-3.90;99.90;;;;;;5072236;28;20408;-75
2022/12/14 10:30:03;;;;;;;39.15;22.17;;;-3.90;99.90;;;;;;5080909;28;20960;-75
2022/12/14 10:32:35;;;;;;;39.50;21.95;;;-3.80;99.90;;;;;;5073232;28;20573;-75
2022/12/14 10:35:41;;;;;;;40.38;21.77;;;-3.70;99.90;;;;;;5087095;28;20410;-75
2022/12/14 10:38:52;;;;;;;37.53;22.10;;;-3.70;99.90;;;;;;5086764;28;20458;-75
2022/12/14 10:41:28;;;;;;;37.60;21.15;;;-3.60;99.90;;;;;;5067119;28;20788;-75
2022/12/14 10:43:59;;;;;;;38.28;22.13;;;-3.50;99.90;;;;;;5082524;28;20404;-75
2022/12/14 10:46:55;;;;;;;37.43;20.83;;;-3.10;99.90;;;;;;5084664;28;20941;-75
2022/12/14 10:49:35;;;;;;;38.80;21.43;;;-2.70;99.90;;;;;;5074639;28;20469;-75
2022/12/14 10:52:13;;;;;;;35.80;20.85;;;-2.40;99.90;;;;;;5086834;28;20489;-75
2022/12/14 10:54:48;;;;;;;39.83;20.73;;;-2.30;99.90;;;;;;5087907;28;20485;-75
2022/12/14 10:57:19;;;;;;;35.05;20.13;;;-2.30;99.90;;;;;;5079690;28;20423;-75
2022/12/14 10:59:44;;;;;;;35.28;20.25;;;-2.30;99.90;;;;;;5081381;28;20406;-75
2022/12/14 11:02:20;;;;;;;35.83;20.20;;;-2.10;99.90;;;;;;5083211;28;20417;-75
2022/12/14 11:04:52;;;;;;;34.63;19.52;;;-1.90;99.90;;;;;;5070581;28;20462;-72
2022/12/14 11:07:21;;;;;;;34.33;20.23;;;-1.60;99.90;;;;;;5068892;28;20949;-72
2022/12/14 11:09:46;;;;;;;29.90;18.45;;;-1.20;99.90;;;;;;5073939;28;20817;-72
2022/12/14 11:12:12;;;;;;;31.52;18.80;;;-0.60;99.90;;;;;;5084954;28;20433;-73
2022/12/14 11:14:50;;;;;;;29.23;18.20;;;0.00;99.90;;;;;;5087803;28;20458;-73
2022/12/14 11:17:36;;;;;;;27.40;17.58;;;0.60;99.90;;;;;;5086722;28;20902;-73
2022/12/14 11:20:08;;;;;;;27.88;16.40;;;1.00;99.90;;;;;;5074926;28;20503;-73
2022/12/14 11:22:47;;;;;;;24.67;15.32;;;1.10;99.90;;;;;;5069275;28;20412;-73
2022/12/14 11:25:34;;;;;;;25.40;15.75;;;1.40;99.90;;;;;;5080480;28;20928;-73
2022/12/14 11:28:13;;;;;;;26.90;16.15;;;1.70;99.90;;;;;;5068277;28;20480;-72
2022/12/14 11:30:39;;;;;;;25.30;15.63;;;1.70;99.90;;;;;;5080352;28;20895;-73
2022/12/14 11:33:04;;;;;;;29.00;17.33;;;1.30;99.90;;;;;;5078846;28;20439;-72
2022/12/14 11:35:30;;;;;;;26.40;16.63;;;1.00;99.90;;;;;;5086779;28;20962;-73
2022/12/14 11:37:59;;;;;;;27.95;17.35;;;0.60;99.90;;;;;;5082433;28;20486;-72
2022/12/14 11:40:26;;;;;;;26.25;16.85;;;0.30;99.90;;;;;;5077692;28;20406;-73
2022/12/14 11:43:00;;;;;;;29.45;17.98;;;0.00;99.90;;;;;;5065733;28;20416;-75
2022/12/14 11:45:31;;;;;;;29.75;18.15;;;-0.20;99.90;;;;;;5077807;28;20480;-75
2022/12/14 11:48:12;;;;;;;28.05;18.15;;;-0.50;99.90;;;;;;5086982;28;20432;-75
2022/12/14 11:50:38;;;;;;;30.55;18.92;;;-0.60;99.90;;;;;;5085755;28;20409;-75
2022/12/14 11:53:08;;;;;;;30.58;19.00;;;-0.70;99.90;;;;;;5074389;28;20430;-75
2022/12/14 11:55:37;;;;;;;30.70;18.97;;;-0.70;99.90;;;;;;5086649;28;20529;-75
2022/12/14 11:58:10;;;;;;;30.48;18.75;;;-0.80;99.90;;;;;;5089753;28;20902;-75
2022/12/14 12:00:46;;;;;;;32.53;18.50;;;-0.80;99.90;;;;;;5090840;28;20394;-75
2022/12/14 12:03:35;;;;;;;29.27;18.75;;;-0.80;99.90;;;;;;5077657;28;20426;-75
2022/12/14 12:06:05;;;;;;;29.77;18.52;;;-0.80;99.90;;;;;;5090263;28;20406;-76
2022/12/14 12:08:35;;;;;;;28.83;18.58;;;-0.60;99.90;;;;;;5090682;28;20394;-75
2022/12/14 12:11:23;;;;;;;29.13;18.40;;;-0.20;99.90;;;;;;5090191;28;20404;-75
2022/12/14 12:14:00;;;;;;;34.35;21.00;;;0.20;99.90;;;;;;5089321;28;20943;-75
2022/12/14 12:16:27;;;;;;;31.58;20.33;;;0.40;99.90;;;;;;5071182;28;20411;-75
2022/12/14 12:18:59;;;;;;;28.92;19.20;;;0.40;99.90;;;;;;5090875;28;20412;-75
2022/12/14 12:21:30;;;;;;;30.23;19.58;;;0.40;99.90;;;;;;5090697;28;20440;-75
2022/12/14 12:24:19;;;;;;;30.05;20.10;;;0.80;99.90;;;;;;5069133;28;20411;-75
2022/12/14 12:26:55;;;;;;;30.25;19.98;;;1.20;99.90;;;;;;5090008;28;20528;-75
2022/12/14 12:29:39;;;;;;;29.42;19.70;;;1.20;99.90;;;;;;5077105;28;20771;-75
2022/12/14 12:32:25;;;;;;;33.83;21.63;;;1.10;99.90;;;;;;5075538;28;20484;-75
2022/12/14 12:34:59;;;;;;;32.40;21.02;;;1.10;99.90;;;;;;5078107;28;20980;-75
2022/12/14 12:37:45;;;;;;;32.08;20.50;;;1.00;99.90;;;;;;5088858;28;21465;-75
2022/12/14 12:40:20;;;;;;;30.65;19.90;;;0.80;99.90;;;;;;5079530;28;20418;-74
2022/12/14 12:42:52;;;;;;;31.67;20.20;;;0.60;99.90;;;;;;5093356;28;20416;-75
2022/12/14 12:45:52;;;;;;;31.13;20.63;;;0.70;99.90;;;;;;5097735;28;20398;-72
2022/12/14 12:48:33;;;;;;;30.75;20.23;;;0.90;99.90;;;;;;5080207;28;20440;-73
2022/12/14 12:51:02;;;;;;;33.58;20.83;;;0.90;99.90;;;;;;5074784;28;20422;-72
2022/12/14 12:53:40;;;;;;;30.88;20.27;;;0.90;99.90;;;;;;5077883;28;20432;-72
2022/12/14 12:56:24;;;;;;;30.45;20.55;;;0.80;99.90;;;;;;5074327;28;20453;-72
2022/12/14 12:58:51;;;;;;;32.10;20.75;;;0.80;99.90;;;;;;5068542;28;20427;-72
2022/12/14 13:01:36;;;;;;;31.67;19.95;;;0.90;99.90;;;;;;5084440;28;20455;-72
2022/12/14 13:04:11;;;;;;;30.85;19.75;;;1.10;99.90;;;;;;5089788;28;20405;-73